Antwerp, Belgium
Current Conditions -  °F | °C
As of 8:50 AM on Friday 19 Dec 2014 (Local Time) from EBAW Reporting Station
Light Rain Light Rain  
Wind Chill: 52°   Ceiling: 1200
Heat Index: 52°   Visibility: 5mi
Dew Point: 48°   Wind: 16mph
Humidity: 88%   Direction: 230°SW
Pressure: 29.83"   Gusts: 28mph
Location:  51.26°N, 4.36°E
Report Text: EBAW 190750Z 23014G24KT 8000 -RA FEW007 SCT009 BKN012 11/09 Q1010 TEMPO 23017G27KT 4000 DZRA BKN008
Loading
Personal Weather Stations






























Interactive Weather Map New forecast layout! Learn more

10-Day Weather Forecast

Advertisements
Track Severe Weather on mobile